Jump to content


DELTA AIRLINES FLIGHT DL362 FLOWN ON 08-06-2017 BY CAPTAIN JIM BOERMAN

Pilot StatsCaptain Jim Boerman (LDP136) • 4,616.9 total hours • 1,400 total flights [View Logbook]
FLIGHT DETAILS
StatusReceived and approved on 2017-08-06 at 11:08:40
Origin AirportSangster Intl (MKJS) • Montego Bay, Jamaica (7 feet MSL)
Filed Flight PlanMKJS KIRAN UL341 PIGBO UL780 URSUS A509 DHP J55 INPIN J91 HITTR J89 SOONE KATL
Destination AirportHartsfield - Jackson Atlanta I (KATL) • Atlanta, Georgia, United States (1,026 feet MSL)
Alternate AirportLovell (KCHA) • Chattanooga, Tennessee, United States (682 feet MSL)
AirlineDelta Airlines
AircraftBoeing 737-900 | Winglets (73X / B737-900)
FS Aircraft UsedPMDG 737-932(ER)/WL Delta Airlines 'New Colours' N838DN
Cruising AltitudeFL340
Distance Flown974 nautical miles
Passengers Onboard127 passengers (72.99% full)
DEPARTURE DETAILS
Time Out07:52:23
Taxi Data153,584 lbs total with 22,254 lbs of fuel onboard
Takeoff Data07:59:52 (7 minutes after leaving gate/ramp) • 153,148 lbs total • 8° pitch at 160 knots
Departure METARMKJS 061200Z 03009KT 9999 FEW022 BKN032 26/21 Q1013
ARRIVAL DETAILS
Landing Data11:22:32 • 139,248 lbs total • 5° pitch doing 120 knots at a rate of -294.51 feet/minute with 7,354 lbs of fuel onboard
Time In11:36:44 (14 minutes after landing)
Ramp Weight138,684 lbs total
Total Fuel Used14,900 lbs
Total Block Time02:44:18 (2.7 hours) while 22 minutes were spent on the ground
Arrival METARKATL 061452Z 21005KT 10SM SCT020 BKN030 27/22 A3009 RMK AO2 SLP178 MDT CU ALQDS T02720222 50002
MISCELLANEOUS DETAILS
LiveDISPATCH Version4.8.3.1
FS Version
FSUIPC Version5.10
OS VersionWindows 7 32-bit
Screen Resolution1920 x 1080
Pilot's CommentsNo Comments Reported
FLIGHT MAP